X  Close Metar Aviation Weather Data     EHKD De Kooy Airport
Temperature
9°C Temperature
8°C Dewpoint
94% Humidity



Wind
29 KM/H
18 MPH
8 M/S
16 KTS



220°
SW
Current Conditions

Light Rain Light Rain
Pressure 995.94 (hPa) - 29.41 (inHg)
Visibility 1.7 (mile) - 2.7 (km)
Airport
Airport-code EHKD

Location: De Kooy Airport
Distance: 34 (km)

Metar:
EHKD 212206Z AUTO 22016KT 190V250 2700 -RA OVC002 09/08 Q0996 AMB

Time: 21-02-2024 23:06 CET